Sandia, Texas
Current Conditions -  °F | °C
As of 8:56 PM on Thursday 27 Nov 2014 (Local Time) from KNOG Reporting Station
Clear Clear  
Wind Chill: 55°   Ceiling: Unl
Heat Index: 55°   Visibility: 10mi
Dew Point: 51°   Wind: 7mph
Humidity: 86%   Direction: 70°ENE
Pressure: 30.41"   Gusts: NA
Location:  28.02°N, 97.88°W
Report Text: KNOG 280256Z AUTO 07006KT 10SM CLR 13/11 A3041 RMK AO2 SLP280 T01280106 50007 $
Loading
Personal Weather Stations






























Interactive Weather Map New forecast layout! Learn more

10-Day Weather Forecast

Advertisements
Track Severe Weather on mobile